createdAt,value
2017-06-21T00:01:55.957Z,58.10
2017-06-21T00:04:24.153Z,58.00
2017-06-21T00:06:52.342Z,58.00
2017-06-21T00:09:20.564Z,58.10
2017-06-21T00:11:49.535Z,58.50
2017-06-21T00:14:17.767Z,58.30
2017-06-21T00:16:45.994Z,58.40
2017-06-21T00:19:14.173Z,58.60
2017-06-21T00:21:42.357Z,58.70
2017-06-21T00:24:11.347Z,59.30
2017-06-21T00:26:39.518Z,58.70
2017-06-21T00:29:07.731Z,58.80
2017-06-21T00:31:35.946Z,58.80
2017-06-21T00:34:04.150Z,58.80
2017-06-21T00:36:33.141Z,59.40
2017-06-21T00:39:01.345Z,59.10
2017-06-21T00:41:29.536Z,59.20
2017-06-21T00:43:57.716Z,59.50
2017-06-21T00:46:25.916Z,59.30
2017-06-21T00:48:54.926Z,59.70
2017-06-21T00:51:23.125Z,60.10
2017-06-21T00:53:52.108Z,59.60
2017-06-21T00:56:21.063Z,59.80
2017-06-21T00:58:49.263Z,59.70
2017-06-21T01:01:17.492Z,60.00
2017-06-21T01:03:45.678Z,60.30
2017-06-21T01:06:13.896Z,60.50
2017-06-21T01:08:42.683Z,60.90
2017-06-21T01:11:10.872Z,61.30
2017-06-21T01:13:39.846Z,61.10
2017-06-21T01:16:08.087Z,61.00
2017-06-21T01:18:36.263Z,60.70
2017-06-21T01:21:04.444Z,60.50
2017-06-21T01:23:32.681Z,61.00
2017-06-21T01:26:00.855Z,61.30
2017-06-21T01:28:29.825Z,61.20
2017-06-21T01:30:58.046Z,61.00
2017-06-21T01:33:26.245Z,61.00
2017-06-21T01:35:54.434Z,60.80
2017-06-21T01:38:22.778Z,61.10
2017-06-21T01:40:50.945Z,61.30
2017-06-21T01:43:19.115Z,61.50
2017-06-21T01:45:47.354Z,61.60
2017-06-21T01:48:15.543Z,61.50
2017-06-21T01:50:44.497Z,61.60
2017-06-21T01:53:12.742Z,61.60
2017-06-21T01:55:40.932Z,61.80
2017-06-21T01:58:09.106Z,62.20
2017-06-21T02:00:37.339Z,62.10
2017-06-21T02:03:06.314Z,62.20
2017-06-21T02:05:34.519Z,62.20
2017-06-21T02:08:02.762Z,62.20
2017-06-21T02:10:30.957Z,62.20
2017-06-21T02:12:59.896Z,62.30
2017-06-21T02:15:28.133Z,62.20
2017-06-21T02:17:56.329Z,62.20
2017-06-21T02:20:24.530Z,62.20
2017-06-21T02:22:52.755Z,62.40
2017-06-21T02:25:21.709Z,62.40
2017-06-21T02:27:49.884Z,62.20
2017-06-21T02:30:18.105Z,62.50
2017-06-21T02:32:46.319Z,62.80
2017-06-21T02:35:14.522Z,63.00
2017-06-21T02:37:42.736Z,63.30
2017-06-21T02:40:10.946Z,63.10
2017-06-21T02:42:39.131Z,63.10
2017-06-21T02:45:07.370Z,62.90
2017-06-21T02:47:35.563Z,62.90
2017-06-21T02:50:03.765Z,62.90
2017-06-21T02:52:31.980Z,62.80
2017-06-21T02:55:00.168Z,63.10
2017-06-21T02:57:28.373Z,62.60
2017-06-21T02:59:56.570Z,62.80
2017-06-21T03:02:24.763Z,62.90
2017-06-21T03:04:52.932Z,63.00
2017-06-21T03:07:21.178Z,63.00
2017-06-21T03:09:49.357Z,63.10
2017-06-21T03:12:17.543Z,63.00
2017-06-21T03:14:45.768Z,63.00
2017-06-21T03:17:13.960Z,63.10
2017-06-21T03:19:42.137Z,63.30
2017-06-21T03:22:10.356Z,63.30
2017-06-21T03:24:38.526Z,63.10
2017-06-21T03:27:06.713Z,63.10
2017-06-21T03:29:35.703Z,64.30
2017-06-21T03:32:03.905Z,63.60
2017-06-21T03:34:32.095Z,63.40
2017-06-21T03:37:00.317Z,63.50
2017-06-21T03:39:28.506Z,63.60
2017-06-21T03:41:56.680Z,63.50
2017-06-21T03:44:24.908Z,63.30
2017-06-21T03:46:53.115Z,63.30
2017-06-21T03:49:21.475Z,63.60
2017-06-21T03:51:49.677Z,64.00
2017-06-21T03:54:17.868Z,64.00
2017-06-21T03:56:46.082Z,64.10
2017-06-21T03:59:14.304Z,64.60
2017-06-21T04:01:42.522Z,64.60
2017-06-21T04:04:10.727Z,64.10
2017-06-21T04:06:38.928Z,64.20
2017-06-21T04:09:07.111Z,64.10
2017-06-21T04:11:35.309Z,63.90
2017-06-21T04:14:04.268Z,63.50
2017-06-21T04:16:32.439Z,63.50
2017-06-21T04:19:00.638Z,63.60
2017-06-21T04:21:29.632Z,63.40
2017-06-21T04:23:58.588Z,63.20
2017-06-21T04:26:26.764Z,63.10
2017-06-21T04:28:54.995Z,63.20
2017-06-21T04:31:23.208Z,62.50
2017-06-21T04:33:51.372Z,62.60
2017-06-21T04:36:19.601Z,62.30
2017-06-21T04:38:48.552Z,61.90
2017-06-21T04:41:16.743Z,61.70
2017-06-21T04:43:44.966Z,62.20
2017-06-21T04:46:13.161Z,61.50
2017-06-21T04:48:41.357Z,61.20
2017-06-21T04:51:09.592Z,61.30
2017-06-21T04:53:37.783Z,60.70
2017-06-21T04:56:06.008Z,60.60
2017-06-21T04:58:34.197Z,60.40
2017-06-21T05:01:03.158Z,59.90
2017-06-21T05:03:31.354Z,59.80
2017-06-21T05:05:59.564Z,59.20
2017-06-21T05:08:27.807Z,59.40
2017-06-21T05:10:56.009Z,58.90
2017-06-21T05:13:24.213Z,58.40
2017-06-21T05:15:52.435Z,58.50
2017-06-21T05:18:20.623Z,58.40
2017-06-21T05:20:49.585Z,58.00
2017-06-21T05:23:17.787Z,58.00
2017-06-21T05:25:46.729Z,57.70
2017-06-21T05:28:14.931Z,57.60
2017-06-21T05:30:43.145Z,56.90
2017-06-21T05:33:12.366Z,56.30
2017-06-21T05:35:40.578Z,55.90
2017-06-21T05:38:08.771Z,56.10
2017-06-21T05:40:36.967Z,55.50
2017-06-21T05:43:05.181Z,54.90
2017-06-21T05:45:33.392Z,54.80
2017-06-21T05:48:01.572Z,53.90
2017-06-21T05:50:30.517Z,53.90
2017-06-21T05:52:58.746Z,53.40
2017-06-21T05:55:27.681Z,53.40
2017-06-21T05:57:55.895Z,53.40
2017-06-21T06:00:24.084Z,53.00
2017-06-21T06:02:52.286Z,53.30
2017-06-21T06:05:20.519Z,53.00
2017-06-21T06:07:48.722Z,52.50
2017-06-21T06:10:17.699Z,51.90
2017-06-21T06:12:45.897Z,51.80
2017-06-21T06:15:14.851Z,51.70
2017-06-21T06:17:43.071Z,51.70
2017-06-21T06:20:11.271Z,50.40
2017-06-21T06:22:39.473Z,51.30
2017-06-21T06:25:07.686Z,51.00
2017-06-21T06:27:36.626Z,48.40
2017-06-21T06:30:04.810Z,48.40
2017-06-21T06:32:32.985Z,48.50
2017-06-21T06:35:01.215Z,48.50
2017-06-21T06:37:29.408Z,48.60
2017-06-21T06:39:57.583Z,49.10
2017-06-21T06:42:25.796Z,48.40
2017-06-21T06:44:54.003Z,47.80
2017-06-21T06:47:22.999Z,47.50
2017-06-21T06:49:51.959Z,47.30
2017-06-21T06:52:20.184Z,47.20
2017-06-21T06:54:48.384Z,47.30
2017-06-21T06:57:16.566Z,47.30
2017-06-21T06:59:44.806Z,47.50
2017-06-21T07:02:13.877Z,46.40
2017-06-21T07:04:42.874Z,46.40
2017-06-21T07:07:11.848Z,45.80
2017-06-21T07:09:40.013Z,45.80
2017-06-21T07:12:08.249Z,45.80
2017-06-21T07:14:36.435Z,46.00
2017-06-21T07:17:05.230Z,45.90
2017-06-21T07:19:33.441Z,45.30
2017-06-21T07:22:01.604Z,44.60
2017-06-21T07:24:29.822Z,44.30
2017-06-21T07:26:58.799Z,44.00
2017-06-21T07:29:26.996Z,44.00
2017-06-21T07:31:55.180Z,43.10
2017-06-21T07:34:23.358Z,43.30
2017-06-21T07:36:51.594Z,43.10
2017-06-21T07:39:19.912Z,42.70
2017-06-21T07:41:48.095Z,41.80
2017-06-21T07:44:16.296Z,41.50
2017-06-21T07:46:44.497Z,41.70
2017-06-21T07:49:12.700Z,41.90
2017-06-21T07:51:40.888Z,40.90
2017-06-21T07:54:09.819Z,40.70
2017-06-21T07:56:38.042Z,40.90
2017-06-21T07:59:06.237Z,40.30
2017-06-21T08:01:34.464Z,40.10
2017-06-21T08:04:02.652Z,40.00
2017-06-21T08:06:31.595Z,37.70
2017-06-21T08:08:59.813Z,37.70
2017-06-21T08:11:28.779Z,37.40
2017-06-21T08:13:56.985Z,37.40
2017-06-21T08:16:25.974Z,34.90
2017-06-21T08:18:54.931Z,32.50
2017-06-21T08:21:23.136Z,32.40
2017-06-21T08:23:51.330Z,29.70
2017-06-21T08:26:19.543Z,29.20
2017-06-21T08:28:47.723Z,29.30
2017-06-21T08:31:15.925Z,28.90
2017-06-21T08:33:44.158Z,28.60
2017-06-21T08:36:12.351Z,27.80
2017-06-21T08:38:40.556Z,26.60
2017-06-21T08:41:08.743Z,25.40
2017-06-21T08:43:36.923Z,24.90
2017-06-21T08:46:05.158Z,23.40
2017-06-21T08:48:33.343Z,21.40
2017-06-21T08:51:01.538Z,20.80
2017-06-21T08:53:29.725Z,19.90
2017-06-21T08:55:58.702Z,20.20
2017-06-21T08:58:26.922Z,19.70
2017-06-21T09:00:55.123Z,19.70
2017-06-21T09:03:23.322Z,19.80
2017-06-21T09:05:51.507Z,19.60
2017-06-21T09:08:19.692Z,20.10
2017-06-21T09:10:47.897Z,19.10
2017-06-21T09:13:16.081Z,18.30
2017-06-21T09:15:44.276Z,18.40
2017-06-21T09:18:12.466Z,18.50
2017-06-21T09:20:40.660Z,19.20
2017-06-21T09:23:08.869Z,20.10
2017-06-21T09:25:37.109Z,20.20
2017-06-21T09:28:05.339Z,21.20
2017-06-21T09:30:33.530Z,22.00
2017-06-21T09:33:01.721Z,23.20
2017-06-21T09:35:29.927Z,24.50
2017-06-21T09:37:58.108Z,24.60
2017-06-21T09:40:27.085Z,23.10
2017-06-21T09:42:55.245Z,23.00
2017-06-21T09:45:23.428Z,21.80
2017-06-21T09:47:51.610Z,22.20
2017-06-21T09:50:19.810Z,21.50
2017-06-21T09:52:48.048Z,21.20
2017-06-21T09:55:16.235Z,18.60
2017-06-21T09:57:44.421Z,17.90
2017-06-21T10:00:13.361Z,16.50
2017-06-21T10:02:41.557Z,16.40
2017-06-21T10:05:09.757Z,16.10
2017-06-21T10:07:37.956Z,15.50
2017-06-21T10:10:06.144Z,15.80
2017-06-21T10:12:34.363Z,15.70
2017-06-21T10:15:02.579Z,15.80
2017-06-21T10:17:30.763Z,15.90
2017-06-21T10:19:58.975Z,16.20
2017-06-21T10:22:27.776Z,15.90
2017-06-21T10:24:55.973Z,15.90
2017-06-21T10:27:24.151Z,15.40
2017-06-21T10:29:53.104Z,15.80
2017-06-21T10:32:21.318Z,16.20
2017-06-21T10:34:49.512Z,16.10
2017-06-21T10:37:18.481Z,16.90
2017-06-21T10:39:46.673Z,16.80
2017-06-21T10:42:15.630Z,17.50
2017-06-21T10:44:43.831Z,17.50
2017-06-21T10:47:13.119Z,19.30
2017-06-21T10:49:41.333Z,18.70
2017-06-21T10:52:09.520Z,18.70
2017-06-21T10:54:37.684Z,19.10
2017-06-21T10:57:05.887Z,19.70
2017-06-21T10:59:34.067Z,19.30
2017-06-21T11:02:02.297Z,19.80
2017-06-21T11:04:31.239Z,19.90
2017-06-21T11:06:59.441Z,19.80
2017-06-21T11:09:28.431Z,20.60
2017-06-21T11:11:56.592Z,20.50
2017-06-21T11:14:24.808Z,20.60
2017-06-21T11:16:53.772Z,19.30
2017-06-21T11:19:21.952Z,19.20
2017-06-21T11:21:50.160Z,19.50
2017-06-21T11:24:18.324Z,19.20
2017-06-21T11:26:47.330Z,20.90
2017-06-21T11:29:15.524Z,20.80
2017-06-21T11:31:43.730Z,21.00
2017-06-21T11:34:11.912Z,21.20
2017-06-21T11:36:40.124Z,22.40
2017-06-21T11:39:08.325Z,23.70
2017-06-21T11:41:36.506Z,23.90
2017-06-21T11:44:04.697Z,24.20
2017-06-21T11:46:32.905Z,24.50
2017-06-21T11:49:01.094Z,23.70
2017-06-21T11:51:29.329Z,25.30
2017-06-21T11:53:57.517Z,25.40
2017-06-21T11:56:25.716Z,26.20
2017-06-21T11:58:53.928Z,26.50
2017-06-21T12:01:22.116Z,27.50
2017-06-21T12:03:50.350Z,28.50
2017-06-21T12:06:18.533Z,28.60
2017-06-21T12:08:46.788Z,28.00
2017-06-21T12:11:15.055Z,29.10
2017-06-21T12:13:43.263Z,28.60
2017-06-21T12:16:11.514Z,29.40
2017-06-21T12:18:40.489Z,27.90
2017-06-21T12:21:08.661Z,27.90
2017-06-21T12:23:36.872Z,29.00
2017-06-21T12:26:05.054Z,29.80
2017-06-21T12:28:33.298Z,30.10
2017-06-21T12:31:01.469Z,29.90
2017-06-21T12:33:29.650Z,29.90
2017-06-21T12:35:57.841Z,29.70
2017-06-21T12:38:26.794Z,29.60
2017-06-21T12:40:55.013Z,29.60
2017-06-21T12:43:23.190Z,29.50
2017-06-21T12:45:51.383Z,28.80
2017-06-21T12:48:19.606Z,29.20
2017-06-21T12:50:47.861Z,28.90
2017-06-21T12:53:16.437Z,29.30
2017-06-21T12:55:44.625Z,29.20
2017-06-21T12:58:12.801Z,29.10
2017-06-21T13:00:41.025Z,29.60
2017-06-21T13:03:09.223Z,28.70
2017-06-21T13:05:37.432Z,29.40
2017-06-21T13:08:05.605Z,30.00
2017-06-21T13:10:33.813Z,28.80
2017-06-21T13:13:02.020Z,31.90
2017-06-21T13:15:30.194Z,31.20
2017-06-21T13:17:58.420Z,31.30
2017-06-21T13:20:26.603Z,30.80
2017-06-21T13:22:54.806Z,30.90
2017-06-21T13:25:23.038Z,30.00
2017-06-21T13:27:51.263Z,27.90
2017-06-21T13:30:19.491Z,28.60
2017-06-21T13:32:47.675Z,30.10
2017-06-21T13:35:15.853Z,31.30
2017-06-21T13:37:44.058Z,31.80
2017-06-21T13:40:12.227Z,31.70
2017-06-21T13:42:40.445Z,31.60
2017-06-21T13:45:08.628Z,31.50
2017-06-21T13:47:36.815Z,31.70
2017-06-21T13:50:05.028Z,32.60
2017-06-21T13:52:33.224Z,32.10
2017-06-21T13:55:01.487Z,31.30
2017-06-21T13:57:29.661Z,31.40
2017-06-21T13:59:57.836Z,32.20
2017-06-21T14:02:26.047Z,32.50
2017-06-21T14:04:54.239Z,32.60
2017-06-21T14:07:22.515Z,31.00
2017-06-21T14:09:50.732Z,31.40
2017-06-21T14:12:18.951Z,31.80
2017-06-21T14:14:47.153Z,32.00
2017-06-21T14:17:15.340Z,32.30
2017-06-21T14:19:44.311Z,30.50
2017-06-21T14:22:12.529Z,30.50
2017-06-21T14:24:40.723Z,29.70
2017-06-21T14:27:08.901Z,30.80
2017-06-21T14:29:37.151Z,29.60
2017-06-21T14:32:05.329Z,27.80
2017-06-21T14:34:33.647Z,29.60
2017-06-21T14:37:01.854Z,29.80
2017-06-21T14:39:30.797Z,30.70
2017-06-21T14:41:59.009Z,30.70
2017-06-21T14:44:27.188Z,29.60
2017-06-21T14:46:55.430Z,29.00
2017-06-21T14:49:23.605Z,29.80
2017-06-21T14:51:51.810Z,30.40
2017-06-21T14:54:20.054Z,29.90
2017-06-21T14:56:48.248Z,30.50
2017-06-21T14:59:16.449Z,30.70
2017-06-21T15:01:45.413Z,29.60
2017-06-21T15:04:13.589Z,29.40
2017-06-21T15:06:41.795Z,28.60
2017-06-21T15:09:11.524Z,28.50
2017-06-21T15:11:39.737Z,28.40
2017-06-21T15:14:07.946Z,28.80
2017-06-21T15:16:36.147Z,28.40
2017-06-21T15:19:05.122Z,29.20
2017-06-21T15:21:33.299Z,29.20
2017-06-21T15:24:01.524Z,29.20
2017-06-21T15:26:29.705Z,27.50
2017-06-21T15:28:57.878Z,27.90
2017-06-21T15:31:26.103Z,28.70
2017-06-21T15:33:54.295Z,28.20
2017-06-21T15:36:23.261Z,27.50
2017-06-21T15:38:51.452Z,27.40
2017-06-21T15:41:20.446Z,28.50
2017-06-21T15:43:48.642Z,28.50
2017-06-21T15:46:16.823Z,27.30
2017-06-21T15:48:45.072Z,27.00
2017-06-21T15:51:14.015Z,27.90
2017-06-21T15:53:42.211Z,27.80
2017-06-21T15:56:10.424Z,28.20
2017-06-21T15:58:39.376Z,28.60
2017-06-21T16:01:07.599Z,28.60
2017-06-21T16:03:35.796Z,29.40
2017-06-21T16:06:03.984Z,27.90
2017-06-21T16:08:32.187Z,28.60
2017-06-21T16:11:00.357Z,29.10
2017-06-21T16:13:28.592Z,29.50
2017-06-21T16:15:56.800Z,29.60
2017-06-21T16:18:25.001Z,29.50
2017-06-21T16:20:53.210Z,29.70
2017-06-21T16:23:21.421Z,28.90
2017-06-21T16:25:49.643Z,28.90
2017-06-21T16:28:18.586Z,29.80
2017-06-21T16:30:46.798Z,29.80
2017-06-21T16:33:15.791Z,29.70
2017-06-21T16:35:44.751Z,30.10
2017-06-21T16:38:12.992Z,30.10
2017-06-21T16:40:41.204Z,30.10
2017-06-21T16:43:09.384Z,30.70
2017-06-21T16:45:37.629Z,31.20
2017-06-21T16:48:05.831Z,30.50
2017-06-21T16:50:34.041Z,30.40
2017-06-21T16:53:03.014Z,30.90
2017-06-21T16:55:31.263Z,30.70
2017-06-21T16:57:59.464Z,31.00
2017-06-21T17:00:27.658Z,30.60
2017-06-21T17:02:56.647Z,31.40
2017-06-21T17:05:24.840Z,31.40
2017-06-21T17:07:53.010Z,31.60
2017-06-21T17:10:21.219Z,31.60
2017-06-21T17:12:49.418Z,32.20
2017-06-21T17:15:17.637Z,32.10
2017-06-21T17:17:45.827Z,31.90
2017-06-21T17:20:14.030Z,31.80
2017-06-21T17:22:42.248Z,31.60
2017-06-21T17:25:11.208Z,33.00
2017-06-21T17:27:39.408Z,33.00
2017-06-21T17:30:08.336Z,32.00
2017-06-21T17:32:36.539Z,32.50
2017-06-21T17:35:04.763Z,32.70
2017-06-21T17:37:32.976Z,32.40
2017-06-21T17:40:01.223Z,32.70
2017-06-21T17:42:29.435Z,32.50
2017-06-21T17:44:57.607Z,33.00
2017-06-21T17:47:25.790Z,33.00
2017-06-21T17:49:53.994Z,33.30
2017-06-21T17:52:22.216Z,33.40
2017-06-21T17:54:50.400Z,33.40
2017-06-21T17:57:18.568Z,33.30
2017-06-21T17:59:46.767Z,33.30
2017-06-21T18:02:14.954Z,33.60
2017-06-21T18:04:43.166Z,33.60
2017-06-21T18:07:12.105Z,34.20
2017-06-21T18:09:40.319Z,34.10
2017-06-21T18:12:09.292Z,35.30
2017-06-21T18:14:37.479Z,35.10
2017-06-21T18:17:05.684Z,34.90
2017-06-21T18:19:33.868Z,35.40
2017-06-21T18:22:02.037Z,35.40
2017-06-21T18:24:30.244Z,36.00
2017-06-21T18:26:58.428Z,35.80
2017-06-21T18:29:26.686Z,35.80
2017-06-21T18:31:54.886Z,36.10
2017-06-21T18:34:23.049Z,36.10
2017-06-21T18:36:51.320Z,36.50
2017-06-21T18:39:19.572Z,36.60
2017-06-21T18:41:48.543Z,37.60
2017-06-21T18:44:17.515Z,38.30
2017-06-21T18:46:45.724Z,38.30
2017-06-21T18:49:14.725Z,39.20
2017-06-21T18:51:42.898Z,39.10
2017-06-21T18:54:11.085Z,39.00
2017-06-21T18:56:39.375Z,39.10
2017-06-21T18:59:07.557Z,39.10
2017-06-21T19:01:35.778Z,39.10
2017-06-21T19:04:04.718Z,39.90
2017-06-21T19:06:32.894Z,39.90
2017-06-21T19:09:01.116Z,40.00
2017-06-21T19:11:30.053Z,41.00
2017-06-21T19:13:58.428Z,40.30
2017-06-21T19:16:26.625Z,39.90
2017-06-21T19:18:54.839Z,40.00
2017-06-21T19:21:23.052Z,40.60
2017-06-21T19:23:51.263Z,41.10
2017-06-21T19:26:19.480Z,41.70
2017-06-21T19:28:48.490Z,42.60
2017-06-21T19:31:16.709Z,42.50
2017-06-21T19:33:44.913Z,42.70
2017-06-21T19:36:13.105Z,42.90
2017-06-21T19:38:41.324Z,42.90
2017-06-21T19:41:09.518Z,43.30
2017-06-21T19:43:37.717Z,43.10
2017-06-21T19:46:05.947Z,42.50
2017-06-21T19:48:34.130Z,42.70
2017-06-21T19:51:02.349Z,42.90
2017-06-21T19:53:30.545Z,43.20
2017-06-21T19:55:59.481Z,43.40
2017-06-21T19:58:27.672Z,43.30
2017-06-21T20:00:55.856Z,43.20
2017-06-21T20:03:24.095Z,43.50
2017-06-21T20:05:52.344Z,43.40
2017-06-21T20:08:21.313Z,43.90
2017-06-21T20:10:49.569Z,43.80
2017-06-21T20:13:17.784Z,44.20
2017-06-21T20:15:46.771Z,44.60
2017-06-21T20:18:15.704Z,44.80
2017-06-21T20:20:43.895Z,44.80
2017-06-21T20:23:12.127Z,44.80
2017-06-21T20:25:40.320Z,45.20
2017-06-21T20:28:08.553Z,45.10
2017-06-21T20:30:36.729Z,44.90
2017-06-21T20:33:04.938Z,44.70
2017-06-21T20:35:33.166Z,44.80
2017-06-21T20:38:01.354Z,45.00
2017-06-21T20:40:29.556Z,45.60
2017-06-21T20:42:58.513Z,45.30
2017-06-21T20:45:26.702Z,45.40
2017-06-21T20:47:54.897Z,45.40
2017-06-21T20:50:23.868Z,45.90
2017-06-21T20:52:52.883Z,46.80
2017-06-21T20:55:21.834Z,46.30
2017-06-21T20:57:50.010Z,46.30
2017-06-21T21:00:18.240Z,46.40
2017-06-21T21:02:46.408Z,47.20
2017-06-21T21:05:14.627Z,47.40
2017-06-21T21:07:42.824Z,46.80
2017-06-21T21:10:11.040Z,47.00
2017-06-21T21:12:39.257Z,46.80
2017-06-21T21:15:07.436Z,47.10
2017-06-21T21:17:35.628Z,47.40
2017-06-21T21:20:03.796Z,47.30
2017-06-21T21:22:32.002Z,47.80
2017-06-21T21:25:00.208Z,48.00
2017-06-21T21:27:28.403Z,48.00
2017-06-21T21:29:56.641Z,48.40
2017-06-21T21:32:24.808Z,48.60
2017-06-21T21:34:53.021Z,48.90
2017-06-21T21:37:21.208Z,48.70
2017-06-21T21:39:49.391Z,48.70
2017-06-21T21:42:17.708Z,48.90
2017-06-21T21:44:46.659Z,49.20
2017-06-21T21:47:14.823Z,49.10
2017-06-21T21:49:43.024Z,49.50
2017-06-21T21:52:11.212Z,49.80
2017-06-21T21:54:40.226Z,50.30
2017-06-21T21:57:08.447Z,50.20
2017-06-21T21:59:36.653Z,50.70
2017-06-21T22:02:05.608Z,51.60
2017-06-21T22:04:33.806Z,51.00
2017-06-21T22:07:02.042Z,50.90
2017-06-21T22:09:30.246Z,51.00
2017-06-21T22:11:58.451Z,51.20
2017-06-21T22:14:27.410Z,51.90
2017-06-21T22:16:55.595Z,51.90
2017-06-21T22:19:23.812Z,52.00
2017-06-21T22:21:52.008Z,52.10
2017-06-21T22:24:20.206Z,52.20
2017-06-21T22:26:48.400Z,52.40
2017-06-21T22:29:16.580Z,52.50
2017-06-21T22:31:44.770Z,52.80
2017-06-21T22:34:13.009Z,52.70
2017-06-21T22:36:41.208Z,52.80
2017-06-21T22:39:09.391Z,52.60
2017-06-21T22:41:37.627Z,52.70
2017-06-21T22:44:05.811Z,52.90
2017-06-21T22:46:34.003Z,52.90
2017-06-21T22:49:02.232Z,53.50
2017-06-21T22:51:30.826Z,53.40
2017-06-21T22:53:59.231Z,53.60
2017-06-21T22:56:27.456Z,53.60
2017-06-21T22:58:55.648Z,53.70
2017-06-21T23:01:23.833Z,54.10
2017-06-21T23:03:52.057Z,54.30
2017-06-21T23:06:20.220Z,54.00
2017-06-21T23:08:48.429Z,54.20
2017-06-21T23:11:16.647Z,54.20
2017-06-21T23:13:44.808Z,54.00
2017-06-21T23:16:13.018Z,54.10
2017-06-21T23:18:41.229Z,54.40
2017-06-21T23:21:10.181Z,54.70
2017-06-21T23:23:38.377Z,54.60
2017-06-21T23:26:06.598Z,54.70
2017-06-21T23:28:34.788Z,54.60
2017-06-21T23:31:02.992Z,54.50
2017-06-21T23:33:31.227Z,54.80
2017-06-21T23:35:59.414Z,55.10
2017-06-21T23:38:27.599Z,55.20
2017-06-21T23:40:55.831Z,55.30
2017-06-21T23:43:24.030Z,55.40
2017-06-21T23:45:52.215Z,55.20
2017-06-21T23:48:20.410Z,55.30
2017-06-21T23:50:48.593Z,55.70
2017-06-21T23:53:16.760Z,55.50
2017-06-21T23:55:45.018Z,55.60
2017-06-21T23:58:13.182Z,55.70
